createdAt,value
2019-02-09T00:02:08.352Z,3.42
2019-02-09T00:04:38.211Z,3.22
2019-02-09T00:07:08.159Z,3.25
2019-02-09T00:09:38.105Z,4.33
2019-02-09T00:12:07.916Z,3.45
2019-02-09T00:14:37.750Z,3.50
2019-02-09T00:17:07.630Z,3.15
2019-02-09T00:19:38.436Z,4.05
2019-02-09T00:22:09.496Z,3.98
2019-02-09T00:24:39.450Z,4.60
2019-02-09T00:27:21.468Z,5.17
2019-02-09T00:29:54.126Z,4.47
2019-02-09T00:32:24.031Z,4.25
2019-02-09T00:34:53.869Z,3.30
2019-02-09T00:37:23.974Z,3.30
2019-02-09T00:39:53.782Z,3.83
2019-02-09T00:42:23.681Z,3.72
2019-02-09T00:44:53.492Z,3.25
2019-02-09T00:47:23.398Z,3.60
2019-02-09T00:49:53.334Z,4.15
2019-02-09T00:52:23.152Z,3.50
2019-02-09T00:54:53.070Z,3.80
2019-02-09T00:57:22.869Z,3.97
2019-02-09T00:59:54.127Z,3.60
2019-02-09T01:02:24.312Z,3.55
2019-02-09T01:04:55.155Z,3.65
2019-02-09T01:07:25.023Z,3.62
2019-02-09T01:09:55.949Z,3.62
2019-02-09T01:12:25.816Z,3.30
2019-02-09T01:14:55.649Z,3.70
2019-02-09T01:17:25.559Z,3.80
2019-02-09T01:19:55.550Z,3.90
2019-02-09T01:22:25.495Z,3.80
2019-02-09T01:24:55.281Z,3.90
2019-02-09T01:27:25.215Z,4.10
2019-02-09T01:30:02.091Z,4.30
2019-02-09T01:32:26.734Z,3.90
2019-02-09T01:34:56.616Z,4.30
2019-02-09T01:37:26.444Z,4.30
2019-02-09T01:39:56.323Z,4.25
2019-02-09T01:42:26.137Z,4.30
2019-02-09T01:44:55.943Z,4.22
2019-02-09T01:47:25.793Z,4.40
2019-02-09T01:49:55.596Z,4.10
2019-02-09T01:52:25.421Z,4.20
2019-02-09T01:54:55.304Z,4.10
2019-02-09T01:57:25.488Z,4.42
2019-02-09T01:59:58.401Z,4.50
2019-02-09T02:02:28.273Z,4.35
2019-02-09T02:04:58.206Z,4.17
2019-02-09T02:07:28.073Z,4.22
2019-02-09T02:09:57.843Z,4.37
2019-02-09T02:12:28.593Z,4.42
2019-02-09T02:14:58.402Z,4.10
2019-02-09T02:17:28.221Z,4.62
2019-02-09T02:19:58.094Z,4.78
2019-02-09T02:22:27.935Z,4.70
2019-02-09T02:24:57.785Z,4.20
2019-02-09T02:27:27.644Z,4.30
2019-02-09T02:29:57.435Z,4.12
2019-02-09T02:32:27.217Z,4.30
2019-02-09T02:34:57.005Z,4.00
2019-02-09T02:37:26.849Z,3.95
2019-02-09T02:39:56.672Z,3.80
2019-02-09T02:42:26.489Z,3.83
2019-02-09T02:44:56.337Z,3.77
2019-02-09T02:47:26.091Z,3.85
2019-02-09T02:49:55.873Z,3.83
2019-02-09T02:52:25.689Z,3.65
2019-02-09T02:54:55.542Z,3.42
2019-02-09T02:57:25.357Z,3.30
2019-02-09T02:59:55.155Z,3.37
2019-02-09T03:02:24.996Z,3.52
2019-02-09T03:04:54.803Z,3.35
2019-02-09T03:07:24.600Z,3.50
2019-02-09T03:09:54.454Z,3.58
2019-02-09T03:12:24.259Z,3.35
2019-02-09T03:14:54.060Z,3.42
2019-02-09T03:17:23.889Z,3.05
2019-02-09T03:19:53.713Z,3.05
2019-02-09T03:22:23.496Z,3.50
2019-02-09T03:24:53.442Z,3.00
2019-02-09T03:27:23.222Z,3.00
2019-02-09T03:29:53.024Z,3.17
2019-02-09T03:32:22.941Z,3.10
2019-02-09T03:34:52.770Z,3.12
2019-02-09T03:37:22.625Z,3.20
2019-02-09T03:39:52.436Z,3.12
2019-02-09T03:42:22.316Z,3.55
2019-02-09T03:44:52.173Z,3.10
2019-02-09T03:47:22.161Z,3.00
2019-02-09T03:49:52.070Z,3.12
2019-02-09T03:52:21.985Z,3.02
2019-02-09T03:54:51.784Z,2.95
2019-02-09T03:57:21.713Z,2.80
2019-02-09T03:59:51.525Z,3.10
2019-02-09T04:02:21.314Z,3.30
2019-02-09T04:04:51.115Z,3.40
2019-02-09T04:07:20.945Z,3.10
2019-02-09T04:09:50.733Z,3.30
2019-02-09T04:12:20.522Z,3.25
2019-02-09T04:14:50.402Z,3.17
2019-02-09T04:17:20.197Z,3.17
2019-02-09T04:19:51.063Z,3.35
2019-02-09T04:22:20.893Z,3.37
2019-02-09T04:24:50.729Z,3.30
2019-02-09T04:27:20.653Z,3.20
2019-02-09T04:29:50.446Z,3.12
2019-02-09T04:32:20.414Z,3.25
2019-02-09T04:34:50.210Z,3.20
2019-02-09T04:37:20.177Z,3.40
2019-02-09T04:39:49.931Z,3.02
2019-02-09T04:42:19.728Z,3.63
2019-02-09T04:44:49.488Z,3.67
2019-02-09T04:47:19.316Z,3.80
2019-02-09T04:49:49.191Z,3.90
2019-02-09T04:52:19.049Z,3.83
2019-02-09T04:54:48.923Z,3.60
2019-02-09T04:57:18.694Z,4.00
2019-02-09T04:59:48.616Z,3.98
2019-02-09T05:02:18.455Z,3.62
2019-02-09T05:04:48.280Z,3.80
2019-02-09T05:07:18.093Z,3.30
2019-02-09T05:09:47.850Z,3.10
2019-02-09T05:12:17.702Z,3.12
2019-02-09T05:14:47.520Z,3.10
2019-02-09T05:17:17.333Z,3.60
2019-02-09T05:19:47.150Z,3.37
2019-02-09T05:22:16.952Z,3.17
2019-02-09T05:24:46.786Z,3.30
2019-02-09T05:27:16.551Z,3.25
2019-02-09T05:29:46.361Z,3.02
2019-02-09T05:32:16.177Z,3.12
2019-02-09T05:34:46.061Z,3.40
2019-02-09T05:37:15.965Z,3.33
2019-02-09T05:39:45.906Z,3.05
2019-02-09T05:42:15.794Z,3.10
2019-02-09T05:44:45.720Z,2.50
2019-02-09T05:47:15.533Z,2.70
2019-02-09T05:49:45.528Z,2.00
2019-02-09T05:52:15.335Z,1.90
2019-02-09T05:54:45.237Z,1.92
2019-02-09T05:57:15.030Z,1.90
2019-02-09T05:59:44.865Z,1.60
2019-02-09T06:02:14.750Z,1.90
2019-02-09T06:04:44.723Z,2.22
2019-02-09T06:07:17.414Z,1.90
2019-02-09T06:09:47.384Z,1.90
2019-02-09T06:12:17.250Z,2.23
2019-02-09T06:14:47.090Z,2.40
2019-02-09T06:17:17.027Z,2.27
2019-02-09T06:19:48.475Z,1.82
2019-02-09T06:22:18.332Z,2.47
2019-02-09T06:24:48.355Z,2.35
2019-02-09T06:27:18.203Z,2.10
2019-02-09T06:29:48.085Z,2.12
2019-02-09T06:32:17.981Z,2.55
2019-02-09T06:34:47.802Z,2.33
2019-02-09T06:37:17.749Z,2.40
2019-02-09T06:39:47.622Z,2.40
2019-02-09T06:42:17.521Z,2.20
2019-02-09T06:44:47.369Z,2.43
2019-02-09T06:47:17.160Z,2.30
2019-02-09T06:49:47.086Z,2.40
2019-02-09T06:52:16.841Z,2.42
2019-02-09T06:54:46.962Z,2.37
2019-02-09T06:57:16.786Z,2.33
2019-02-09T06:59:46.784Z,2.10
2019-02-09T07:02:16.657Z,2.20
2019-02-09T07:04:46.445Z,1.75
2019-02-09T07:07:16.245Z,2.00
2019-02-09T07:09:46.017Z,2.00
2019-02-09T07:12:15.845Z,1.98
2019-02-09T07:14:45.665Z,2.20
2019-02-09T07:17:15.592Z,1.87
2019-02-09T07:19:45.383Z,2.02
2019-02-09T07:22:15.203Z,2.10
2019-02-09T07:24:45.012Z,1.80
2019-02-09T07:27:14.990Z,2.00
2019-02-09T07:29:44.932Z,2.30
2019-02-09T07:32:14.734Z,2.05
2019-02-09T07:34:44.629Z,2.20
2019-02-09T07:37:15.242Z,2.00
2019-02-09T07:39:46.402Z,1.90
2019-02-09T07:42:16.419Z,2.02
2019-02-09T07:44:46.878Z,2.37
2019-02-09T07:47:16.732Z,2.98
2019-02-09T07:49:46.518Z,2.17
2019-02-09T07:52:16.458Z,2.35
2019-02-09T07:54:46.360Z,2.20
2019-02-09T07:57:16.180Z,1.80
2019-02-09T07:59:45.970Z,2.10
2019-02-09T08:02:16.760Z,2.10
2019-02-09T08:04:46.676Z,2.30
2019-02-09T08:07:16.575Z,2.52
2019-02-09T08:09:49.544Z,1.70
2019-02-09T08:12:21.846Z,2.25
2019-02-09T08:14:51.875Z,2.17
2019-02-09T08:17:21.685Z,1.90
2019-02-09T08:19:51.505Z,2.15
2019-02-09T08:22:21.301Z,2.12
2019-02-09T08:24:51.138Z,2.25
2019-02-09T08:27:23.541Z,2.00
2019-02-09T08:29:53.721Z,2.08
2019-02-09T08:32:23.606Z,2.00
2019-02-09T08:34:53.601Z,2.20
2019-02-09T08:37:23.486Z,2.22
2019-02-09T08:39:53.382Z,2.05
2019-02-09T08:42:23.281Z,1.80
2019-02-09T08:44:53.233Z,2.05
2019-02-09T08:47:23.060Z,2.15
2019-02-09T08:49:52.975Z,1.98
2019-02-09T08:52:22.809Z,1.93
2019-02-09T08:54:52.674Z,2.02
2019-02-09T08:57:22.491Z,2.00
2019-02-09T08:59:52.362Z,1.95
2019-02-09T09:02:22.291Z,1.70
2019-02-09T09:04:52.090Z,1.90
2019-02-09T09:07:21.900Z,1.80
2019-02-09T09:09:51.697Z,1.90
2019-02-09T09:12:21.513Z,1.60
2019-02-09T09:14:51.350Z,1.70
2019-02-09T09:17:21.286Z,1.98
2019-02-09T09:19:52.078Z,1.90
2019-02-09T09:22:25.270Z,1.93
2019-02-09T09:24:55.143Z,2.20
2019-02-09T09:27:25.562Z,2.25
2019-02-09T09:29:55.367Z,2.30
2019-02-09T09:32:28.657Z,2.33
2019-02-09T09:34:56.830Z,2.10
2019-02-09T09:37:27.775Z,2.55
2019-02-09T09:39:57.908Z,2.20
2019-02-09T09:42:28.830Z,2.25
2019-02-09T09:44:58.919Z,2.50
2019-02-09T09:47:29.079Z,2.67
2019-02-09T09:49:59.310Z,3.12
2019-02-09T09:52:29.531Z,2.70
2019-02-09T09:54:59.548Z,2.83
2019-02-09T09:57:29.774Z,2.77
2019-02-09T09:59:59.997Z,3.00
2019-02-09T10:02:36.392Z,2.50
2019-02-09T10:05:01.560Z,2.75
2019-02-09T10:07:31.527Z,2.67
2019-02-09T10:10:01.510Z,2.60
2019-02-09T10:12:31.403Z,2.40
2019-02-09T10:15:01.308Z,2.90
2019-02-09T10:17:31.248Z,2.35
2019-02-09T10:20:01.502Z,2.30
2019-02-09T10:22:32.637Z,2.80
2019-02-09T10:25:03.574Z,2.30
2019-02-09T10:27:33.527Z,2.90
2019-02-09T10:30:05.337Z,2.83
2019-02-09T10:32:35.263Z,2.40
2019-02-09T10:35:06.119Z,2.60
2019-02-09T10:37:36.008Z,2.80
2019-02-09T10:40:07.376Z,2.60
2019-02-09T10:42:37.231Z,2.60
2019-02-09T10:45:08.574Z,2.90
2019-02-09T10:47:39.277Z,2.60
2019-02-09T10:50:12.008Z,2.70
2019-02-09T10:52:41.901Z,2.85
2019-02-09T10:55:11.920Z,3.55
2019-02-09T10:57:41.817Z,2.92
2019-02-09T11:00:18.627Z,3.35
2019-02-09T11:02:52.297Z,2.55
2019-02-09T11:05:20.294Z,2.87
2019-02-09T11:07:50.261Z,2.60
2019-02-09T11:10:20.822Z,2.80
2019-02-09T11:15:57.665Z,2.77
2019-02-09T11:18:27.590Z,2.87
2019-02-09T11:20:57.422Z,2.75
2019-02-09T11:23:27.381Z,2.87
2019-02-09T11:25:57.290Z,2.60
2019-02-09T11:28:27.124Z,2.70
2019-02-09T11:30:56.947Z,2.77
2019-02-09T11:33:26.944Z,2.83
2019-02-09T11:35:56.847Z,2.75
2019-02-09T11:38:26.671Z,2.70
2019-02-09T11:40:56.539Z,2.87
2019-02-09T11:43:26.502Z,2.67
2019-02-09T11:45:56.335Z,2.62
2019-02-09T11:48:26.266Z,2.80
2019-02-09T11:50:56.266Z,2.60
2019-02-09T11:53:26.153Z,2.83
2019-02-09T11:55:55.966Z,2.42
2019-02-09T11:58:25.921Z,3.15
2019-02-09T12:00:55.810Z,3.12
2019-02-09T12:03:25.742Z,3.22
2019-02-09T12:05:55.539Z,3.10
2019-02-09T12:08:25.669Z,3.02
2019-02-09T12:10:55.491Z,3.22
2019-02-09T12:13:25.319Z,2.92
2019-02-09T12:15:55.238Z,3.20
2019-02-09T12:18:25.174Z,3.47
2019-02-09T12:20:55.093Z,2.65
2019-02-09T12:23:25.091Z,2.65
2019-02-09T12:25:54.870Z,2.80
2019-02-09T12:28:24.828Z,2.42
2019-02-09T12:30:54.721Z,2.30
2019-02-09T12:33:24.578Z,2.55
2019-02-09T12:35:56.319Z,2.15
2019-02-09T12:38:26.211Z,2.30
2019-02-09T12:40:56.045Z,2.20
2019-02-09T12:43:25.886Z,1.98
2019-02-09T12:45:55.763Z,2.30
2019-02-09T12:48:25.707Z,1.80
2019-02-09T12:50:55.565Z,2.02
2019-02-09T12:53:25.495Z,2.10
2019-02-09T12:55:55.322Z,1.85
2019-02-09T12:58:25.255Z,2.00
2019-02-09T13:00:55.116Z,2.27
2019-02-09T13:03:31.385Z,2.20
2019-02-09T13:05:58.758Z,2.25
2019-02-09T13:08:28.671Z,1.90
2019-02-09T13:10:58.546Z,1.90
2019-02-09T13:13:28.358Z,2.08
2019-02-09T13:15:58.335Z,2.17
2019-02-09T13:18:28.264Z,2.22
2019-02-09T13:20:58.171Z,2.15
2019-02-09T13:23:28.086Z,2.35
2019-02-09T13:25:58.237Z,2.00
2019-02-09T13:28:28.386Z,2.20
2019-02-09T13:31:00.009Z,2.20
2019-02-09T13:33:38.631Z,3.85
2019-02-09T13:36:06.925Z,2.20
2019-02-09T13:38:37.078Z,2.37
2019-02-09T13:41:06.882Z,2.47
2019-02-09T13:43:36.840Z,2.42
2019-02-09T13:46:06.730Z,2.62
2019-02-09T13:48:36.622Z,2.40
2019-02-09T13:51:06.543Z,2.30
2019-02-09T13:53:36.438Z,2.33
2019-02-09T13:56:06.346Z,2.40
2019-02-09T13:58:36.201Z,2.37
2019-02-09T14:01:06.371Z,2.20
2019-02-09T14:03:37.202Z,2.65
2019-02-09T14:06:08.514Z,2.55
2019-02-09T14:08:38.521Z,3.02
2019-02-09T14:11:08.396Z,2.83
2019-02-09T14:13:38.326Z,2.92
2019-02-09T14:16:08.551Z,3.05
2019-02-09T14:18:38.671Z,3.02
2019-02-09T14:21:08.573Z,3.20
2019-02-09T14:23:38.423Z,3.17
2019-02-09T14:26:08.411Z,3.25
2019-02-09T14:28:38.221Z,2.90
2019-02-09T14:31:08.181Z,3.00
2019-02-09T14:33:38.150Z,3.00
2019-02-09T14:36:08.111Z,3.20
2019-02-09T14:38:37.965Z,2.90
2019-02-09T14:41:07.897Z,2.83
2019-02-09T14:43:37.741Z,3.05
2019-02-09T14:46:07.616Z,3.37
2019-02-09T14:48:37.545Z,3.33
2019-02-09T14:51:07.329Z,3.22
2019-02-09T14:53:37.239Z,2.98
2019-02-09T14:56:07.082Z,3.23
2019-02-09T14:58:36.942Z,3.05
2019-02-09T15:01:07.035Z,3.12
2019-02-09T15:03:36.982Z,3.00
2019-02-09T15:06:06.856Z,3.00
2019-02-09T15:08:37.411Z,2.60
2019-02-09T15:11:07.636Z,2.63
2019-02-09T15:13:37.523Z,2.85
2019-02-09T15:16:33.570Z,2.97
2019-02-09T15:19:03.577Z,3.00
2019-02-09T15:21:33.494Z,2.42
2019-02-09T15:24:03.412Z,3.10
2019-02-09T15:26:33.410Z,2.60
2019-02-09T15:29:03.393Z,2.80
2019-02-09T15:31:33.261Z,2.75
2019-02-09T15:34:09.965Z,2.97
2019-02-09T15:36:37.411Z,2.92
2019-02-09T15:39:09.290Z,2.47
2019-02-09T15:41:39.350Z,3.02
2019-02-09T15:44:09.325Z,2.87
2019-02-09T15:46:39.569Z,3.08
2019-02-09T15:49:09.644Z,2.80
2019-02-09T15:51:39.596Z,3.10
2019-02-09T15:54:12.610Z,3.33
2019-02-09T15:56:42.696Z,3.00
2019-02-09T15:59:12.714Z,2.92
2019-02-09T16:01:42.738Z,3.17
2019-02-09T16:04:17.682Z,3.05
2019-02-09T16:06:45.339Z,3.12
2019-02-09T16:09:15.234Z,2.83
2019-02-09T16:11:45.156Z,3.02
2019-02-09T16:14:15.084Z,3.25
2019-02-09T16:16:44.933Z,3.20
2019-02-09T16:19:14.842Z,3.83
2019-02-09T16:21:44.810Z,3.03
2019-02-09T16:24:14.769Z,2.95
2019-02-09T16:26:44.706Z,3.10
2019-02-09T16:29:18.620Z,2.58
2019-02-09T16:31:48.678Z,2.33
2019-02-09T16:34:25.168Z,2.77
2019-02-09T16:36:50.249Z,2.90
2019-02-09T16:39:21.807Z,2.60
2019-02-09T16:41:51.831Z,2.72
2019-02-09T16:44:21.933Z,2.77
2019-02-09T16:46:54.636Z,2.50
2019-02-09T16:49:24.558Z,2.70
2019-02-09T16:51:54.535Z,2.67
2019-02-09T16:54:24.484Z,2.40
2019-02-09T16:56:55.397Z,2.70
2019-02-09T16:59:25.438Z,2.55
2019-02-09T17:01:55.530Z,2.80
2019-02-09T17:04:32.917Z,2.65
2019-02-09T17:06:57.032Z,2.30
2019-02-09T17:09:27.031Z,2.90
2019-02-09T17:11:56.966Z,2.52
2019-02-09T17:14:26.826Z,2.77
2019-02-09T17:16:56.641Z,2.95
2019-02-09T17:19:26.572Z,2.80
2019-02-09T17:21:56.429Z,2.55
2019-02-09T17:24:26.453Z,3.27
2019-02-09T17:26:56.382Z,2.67
2019-02-09T17:29:26.205Z,2.42
2019-02-09T17:31:56.153Z,3.00
2019-02-09T17:34:26.073Z,3.10
2019-02-09T17:36:56.049Z,4.60
2019-02-09T17:39:25.868Z,12.85
2019-02-09T17:41:55.755Z,17.95
2019-02-09T17:44:25.714Z,6.72
2019-02-09T17:46:56.996Z,4.33
2019-02-09T17:49:26.792Z,3.37
2019-02-09T17:51:56.612Z,3.00
2019-02-09T17:54:26.478Z,3.02
2019-02-09T17:56:56.297Z,3.20
2019-02-09T17:59:26.304Z,2.80
2019-02-09T18:01:56.222Z,2.90
2019-02-09T18:04:26.060Z,3.08
2019-02-09T18:06:56.635Z,3.10
2019-02-09T18:09:26.581Z,3.62
2019-02-09T18:11:56.484Z,3.65
2019-02-09T18:14:26.389Z,3.47
2019-02-09T18:16:56.378Z,4.10
2019-02-09T18:19:26.274Z,3.80
2019-02-09T18:21:56.206Z,3.12
2019-02-09T18:24:26.074Z,3.67
2019-02-09T18:26:55.869Z,3.50
2019-02-09T18:29:25.758Z,3.53
2019-02-09T18:31:55.660Z,3.60
2019-02-09T18:34:25.586Z,3.33
2019-02-09T18:36:55.448Z,3.67
2019-02-09T18:39:25.258Z,3.15
2019-02-09T18:41:55.118Z,3.10
2019-02-09T18:44:24.950Z,3.67
2019-02-09T18:46:54.880Z,3.50
2019-02-09T18:49:24.782Z,3.25
2019-02-09T18:51:54.687Z,3.33
2019-02-09T18:54:24.493Z,3.30
2019-02-09T18:56:55.421Z,3.50
2019-02-09T18:59:25.351Z,2.98
2019-02-09T19:01:55.650Z,3.10
2019-02-09T19:04:25.624Z,3.50
2019-02-09T19:06:57.003Z,3.20
2019-02-09T19:09:28.516Z,3.40
2019-02-09T19:11:58.438Z,3.25
2019-02-09T19:14:29.315Z,3.30
2019-02-09T19:16:59.464Z,3.00
2019-02-09T19:19:29.395Z,3.10
2019-02-09T19:22:00.014Z,3.00
2019-02-09T19:24:30.732Z,3.22
2019-02-09T19:27:01.381Z,3.37
2019-02-09T19:29:31.836Z,3.40
2019-02-09T19:32:01.807Z,3.00
2019-02-09T19:34:32.792Z,3.37
2019-02-09T19:37:08.699Z,3.20
2019-02-09T19:39:39.133Z,3.47
2019-02-09T19:42:09.090Z,3.40
2019-02-09T19:44:40.068Z,3.10
2019-02-09T19:47:10.004Z,3.10
2019-02-09T19:49:41.375Z,3.50
2019-02-09T19:52:11.365Z,3.42
2019-02-09T19:54:41.914Z,3.70
2019-02-09T19:57:12.232Z,3.42
2019-02-09T19:59:42.130Z,3.35
2019-02-09T20:02:12.385Z,3.20
2019-02-09T20:04:42.312Z,3.60
2019-02-09T20:07:13.541Z,3.80
2019-02-09T20:09:43.695Z,3.90
2019-02-09T20:12:14.034Z,3.90
2019-02-09T20:14:43.961Z,3.92
2019-02-09T20:17:13.851Z,4.03
2019-02-09T20:19:44.403Z,3.90
2019-02-09T20:22:14.407Z,3.25
2019-02-09T20:24:46.846Z,3.50
2019-02-09T20:27:17.377Z,4.92
2019-02-09T20:29:47.949Z,3.98
2019-02-09T20:32:18.733Z,3.80
2019-02-09T20:34:49.061Z,3.60
2019-02-09T20:37:18.997Z,3.93
2019-02-09T20:39:49.372Z,3.60
2019-02-09T20:42:19.542Z,4.20
2019-02-09T20:44:50.206Z,3.83
2019-02-09T20:47:20.609Z,3.70
2019-02-09T20:49:52.441Z,4.08
2019-02-09T20:52:22.518Z,4.20
2019-02-09T20:54:52.956Z,4.35
2019-02-09T20:57:23.198Z,4.30
2019-02-09T20:59:53.356Z,4.42
2019-02-09T21:02:23.473Z,4.50
2019-02-09T21:05:00.733Z,4.00
2019-02-09T21:07:31.339Z,4.37
2019-02-09T21:10:01.517Z,4.20
2019-02-09T21:12:32.634Z,4.40
2019-02-09T21:15:02.586Z,4.65
2019-02-09T21:17:32.691Z,4.90
2019-02-09T21:20:02.858Z,4.30
2019-02-09T21:22:33.111Z,4.58
2019-02-09T21:25:03.470Z,4.67
2019-02-09T21:27:33.967Z,4.65
2019-02-09T21:30:05.220Z,4.70
2019-02-09T21:32:40.267Z,5.10
2019-02-09T21:35:08.740Z,4.87
2019-02-09T21:37:38.640Z,6.15
2019-02-09T21:40:12.392Z,5.45
2019-02-09T21:42:43.296Z,4.75
2019-02-09T21:45:17.699Z,5.87
2019-02-09T21:47:48.164Z,5.85
2019-02-09T21:50:21.421Z,5.83
2019-02-09T21:52:51.482Z,5.22
2019-02-09T21:55:21.759Z,5.75
2019-02-09T21:57:52.780Z,5.33
2019-02-09T22:00:34.056Z,5.70
2019-02-09T22:03:04.876Z,5.83
2019-02-09T22:05:34.712Z,7.90
2019-02-09T22:08:05.134Z,6.80
2019-02-09T22:10:35.041Z,6.47
2019-02-09T22:13:04.997Z,7.30
2019-02-09T22:15:38.726Z,5.27
2019-02-09T22:18:06.936Z,6.50
2019-02-09T22:20:36.789Z,7.05
2019-02-09T22:23:06.833Z,7.25
2019-02-09T22:25:36.710Z,5.62
2019-02-09T22:28:07.913Z,5.47
2019-02-09T22:30:37.850Z,6.47
2019-02-09T22:33:08.297Z,5.03
2019-02-09T22:35:38.194Z,5.22
2019-02-09T22:38:08.136Z,5.22
2019-02-09T22:40:38.524Z,7.33
2019-02-09T22:43:09.005Z,7.67
2019-02-09T22:45:39.066Z,7.47
2019-02-09T22:48:09.962Z,7.85
2019-02-09T22:50:42.059Z,6.17
2019-02-09T22:53:12.022Z,6.55
2019-02-09T22:55:42.915Z,5.80
2019-02-09T22:58:13.917Z,6.40
2019-02-09T23:01:22.040Z,6.72
2019-02-09T23:03:59.839Z,6.35
2019-02-09T23:06:52.527Z,6.17
2019-02-09T23:09:24.814Z,6.07
2019-02-09T23:11:54.753Z,4.22
2019-02-09T23:14:24.730Z,5.20
2019-02-09T23:16:54.698Z,6.40
2019-02-09T23:19:27.699Z,5.50
2019-02-09T23:21:57.666Z,4.90
2019-02-09T23:24:27.514Z,4.12
2019-02-09T23:26:57.447Z,4.05
2019-02-09T23:29:28.458Z,3.92
2019-02-09T23:31:58.223Z,4.87
2019-02-09T23:34:28.055Z,4.75
2019-02-09T23:36:57.927Z,4.33
2019-02-09T23:39:27.780Z,4.03
2019-02-09T23:41:57.695Z,4.45
2019-02-09T23:44:27.633Z,4.28
2019-02-09T23:46:57.504Z,3.92
2019-02-09T23:49:27.409Z,4.22
2019-02-09T23:51:57.304Z,3.95
2019-02-09T23:54:27.142Z,3.70
2019-02-09T23:56:56.986Z,4.17
2019-02-09T23:59:26.865Z,4.78
